• Join FlightAware (Why Join?)
  • Login
  • US Flag 
08:15AM EDT


 

Airport Tracker/Info


-or-


 

Live Flight TrackerFlight Track Log ✈ KAL363 ✈ 16-Apr-2013 ✈ RKSI / ICN - WSSS / SIN

Flight Track Log - Related Links

Times and Time Zones

All times are in EDT time to prevent confusion due to time zone crossing. See the KAL363 flight status page for this flight to view local times or setup timezone preferences in your user account.

Time Position Orientation Groundspeed Altitude Reporting Facility
EDT Latitude Longitude Course Direction KTS MPH feet Rate Location/Type
10:25AM 37.4830 126.2520 159° South 296 341 7,400  Level FlightAware
10:25AM 37.4610 126.2640 157° South 302 348 8,100 2,400 Climbing FlightAware
10:25AM 37.4290 126.2820 156° South 294 338 9,000 2,040 Climbing FlightAware
10:26AM 37.3720 126.3090 159° South 307 353 10,500 1,440 Climbing FlightAware
10:27AM 37.3100 126.3380 160° South 343 395 11,100 960 Climbing FlightAware
10:27AM 37.2440 126.3700 159° South 382 440 11,900 1,620 Climbing FlightAware
10:28AM 37.1740 126.4040 159° South 397 457 13,400 2,280 Climbing FlightAware
10:29AM 37.1140 126.4330 159° South 397 457 14,800 2,280 Climbing FlightAware
10:30AM 37.0260 126.4760 159° South 412 474 16,700 1,500 Climbing FlightAware
10:30AM 36.9690 126.5040 159° South 414 476 17,000 1,380 Climbing FlightAware
10:31AM 36.8670 126.5540 159° South 431 496 18,800 1,020 Climbing FlightAware
10:32AM 36.7890 126.5940 158° South 431 496 18,800  Level FlightAware
10:33AM 36.7260 126.6250 158° South 431 496 18,800  Level FlightAware
10:33AM 36.6630 126.6570 158° South 431 496 18,800  Level FlightAware
10:34AM 36.6000 126.6890 158° South 431 496 18,800  Level FlightAware
10:35AM 36.5370 126.7200 158° South 431 496 18,800 240 Level FlightAware
10:37AM 36.3710 126.5698 216° Southwest  Level Estimated
10:38AM 36.2865 126.4936 216° Southwest  Level Estimated
10:39AM 36.2019 126.4176 216° Southwest  Level Estimated
10:40AM 36.1173 126.3418 216° Southwest  Level Estimated
10:41AM 36.0327 126.2662 216° Southwest  Level Estimated
10:42AM 35.9480 126.1907 216° Southwest  Level Estimated
10:43AM 35.8633 126.1153 216° Southwest  Level Estimated
10:44AM 35.7785 126.0402 216° Southwest  Level Estimated
10:45AM 35.6936 125.9651 216° Southwest  Level Estimated
10:46AM 35.6088 125.8903 216° Southwest  Level Estimated
10:47AM 35.5238 125.8156 216° Southwest  Level Estimated
10:48AM 35.4389 125.7411 216° Southwest  Level Estimated
10:49AM 35.3539 125.6667 216° Southwest  Level Estimated
10:50AM 35.2688 125.5925 215° Southwest  Level Estimated
10:51AM 35.1837 125.5184 215° Southwest  Level Estimated
10:52AM 35.0985 125.4445 215° Southwest  Level Estimated
10:53AM 35.0134 125.3707 215° Southwest  Level Estimated
10:54AM 34.9281 125.2971 215° Southwest  Level Estimated
10:55AM 34.8428 125.2237 215° Southwest  Level Estimated
10:56AM 34.7575 125.1504 215° Southwest  Level Estimated
10:57AM 34.6721 125.0772 215° Southwest  Level Estimated
10:58AM 34.5867 125.0042 215° Southwest  Level Estimated
10:59AM 34.5013 124.9314 215° Southwest  Level Estimated
11:00AM 34.4157 124.8587 215° Southwest  Level Estimated
11:01AM 34.3302 124.7861 215° Southwest  Level Estimated
11:02AM 34.2446 124.7137 215° Southwest  Level Estimated
11:03AM 34.1590 124.6415 215° Southwest  Level Estimated
11:04AM 34.0733 124.5694 215° Southwest  Level Estimated
11:05AM 33.9876 124.4974 215° Southwest  Level Estimated
11:06AM 33.9019 124.4256 215° Southwest  Level Estimated
11:07AM 33.8161 124.3539 215° Southwest  Level Estimated
11:08AM 33.7302 124.2824 215° Southwest  Level Estimated
11:09AM 33.6443 124.2110 215° Southwest  Level Estimated
11:10AM 33.5584 124.1398 215° Southwest  Level Estimated
11:11AM 33.4725 124.0687 215° Southwest  Level Estimated
11:12AM 33.3865 123.9977 215° Southwest  Level Estimated
11:13AM 33.3004 123.9269 215° Southwest  Level Estimated
11:14AM 33.2143 123.8562 214° Southwest  Level Estimated
11:15AM 33.1282 123.7857 214° Southwest  Level Estimated
11:16AM 33.0420 123.7153 214° Southwest  Level Estimated
11:17AM 32.9558 123.6450 214° Southwest  Level Estimated
11:18AM 32.8696 123.5749 214° Southwest  Level Estimated
11:19AM 32.7833 123.5049 214° Southwest  Level Estimated
11:20AM 32.6970 123.4350 214° Southwest  Level Estimated
11:21AM 32.6106 123.3653 214° Southwest  Level Estimated
11:22AM 32.5243 123.2957 214° Southwest  Level Estimated
11:23AM 32.4378 123.2263 214° Southwest  Level Estimated
11:24AM 32.3513 123.1570 214° Southwest  Level Estimated
11:25AM 32.2648 123.0878 214° Southwest  Level Estimated
11:26AM 32.1783 123.0187 214° Southwest  Level Estimated
11:27AM 32.0917 122.9498 214° Southwest  Level Estimated
11:27AM 30.0530 125.0990 214° Southwest 426 490 34,000  Level FlightAware
11:27AM 29.9830 125.0540 209° Southwest 425 489 34,000  Level FlightAware
11:28AM 32.0051 122.8810 214° Southwest  Level Estimated
11:28AM 29.9020 125.0020 209° Southwest 426 490 34,000  Level FlightAware
11:29AM 29.8130 124.9450 209° Southwest 425 489 34,000  Level FlightAware
11:30AM 29.7390 124.8980 209° Southwest 425 489 34,000  Level FlightAware
11:30AM 29.6590 124.8470 209° Southwest 422 486 34,000  Level FlightAware
11:31AM 29.5790 124.7960 209° Southwest 427 491 34,000  Level FlightAware
11:32AM 29.5110 124.7520 209° Southwest 424 488 34,000  Level FlightAware
11:33AM 29.4400 124.7070 209° Southwest 423 487 34,000  Level FlightAware
11:33AM 29.3810 124.6690 209° Southwest 422 486 34,000  Level FlightAware
11:34AM 29.3080 124.6230 209° Southwest 422 486 34,000  Level FlightAware
11:35AM 29.2160 124.5650 209° Southwest 425 489 34,000  Level FlightAware
11:36AM 29.1290 124.5100 209° Southwest 426 490 34,000  Level FlightAware
11:36AM 29.0520 124.4610 209° Southwest 426 490 34,000  Level FlightAware
11:37AM 28.9750 124.4120 209° Southwest 427 491 34,000  Level FlightAware
11:38AM 28.9070 124.3700 208° Southwest 427 491 34,000  Level FlightAware
11:39AM 28.8170 124.3130 209° Southwest 421 484 34,000  Level FlightAware
11:39AM 28.7590 124.2760 209° Southwest 421 484 34,000  Level FlightAware
11:40AM 28.7010 124.2400 209° Southwest 421 484 34,000  Level FlightAware
11:41AM 28.6430 124.2030 209° Southwest 421 484 34,000  Level FlightAware
11:41AM 28.5710 124.1580 209° Southwest 421 484 34,000  Level FlightAware
11:42AM 28.5130 124.1210 209° Southwest 421 484 34,000  Level FlightAware
11:43AM 28.4550 124.0840 209° Southwest 421 484 34,000  Level FlightAware
11:45AM 28.3090 123.9658 215° Southwest  Level FlightAware Approximate
11:46AM 28.2239 123.8971 215° Southwest  Level FlightAware Approximate
11:47AM 28.1387 123.8286 215° Southwest  Level FlightAware Approximate
11:48AM 28.0536 123.7601 215° Southwest  Level FlightAware Approximate
11:49AM 27.9683 123.6917 215° Southwest  Level FlightAware Approximate
11:50AM 27.8831 123.6235 215° Southwest  Level FlightAware Approximate
11:51AM 27.7978 123.5553 215° Southwest  Level FlightAware Approximate
11:52AM 27.7125 123.4873 215° Southwest  Level FlightAware Approximate
11:53AM 27.6272 123.4193 215° Southwest  Level FlightAware Approximate
11:54AM 27.5418 123.3515 215° Southwest  Level FlightAware Approximate
11:55AM 27.4564 123.2838 215° Southwest  Level FlightAware Approximate
11:55AM 27.1460 123.0550 215° Southwest 427 491 34,000  Level FlightAware
11:56AM 27.3709 123.2162 215° Southwest  Level FlightAware Approximate
11:56AM 27.0850 123.0060 216° Southwest 426 490 34,000  Level FlightAware
11:57AM 27.0100 122.9460 215° Southwest 426 490 34,000  Level FlightAware
11:58AM 26.9460 122.8950 215° Southwest 424 488 34,000  Level FlightAware
11:58AM 26.8810 122.8440 215° Southwest 423 487 34,000  Level FlightAware
11:59AM 26.8100 122.7880 215° Southwest 424 488 34,000  Level FlightAware
12:00PM 26.7430 122.7340 216° Southwest 425 489 34,000  Level FlightAware
12:00PM 26.6710 122.6780 215° Southwest 427 491 34,000  Level FlightAware
12:01PM 26.6070 122.6270 215° Southwest 428 493 34,000  Level FlightAware
12:02PM 26.5420 122.5760 215° Southwest 428 493 34,000  Level FlightAware
12:02PM 26.4680 122.5170 216° Southwest 427 491 34,000  Level FlightAware
12:03PM 26.4030 122.4670 215° Southwest 427 491 34,000  Level FlightAware
12:04PM 26.3330 122.4110 216° Southwest 428 493 34,000  Level FlightAware
12:05PM 26.2660 122.3590 215° Southwest 428 493 34,000  Level FlightAware
12:05PM 26.2020 122.3090 215° Southwest 429 494 34,000  Level FlightAware
12:06PM 26.1280 122.2510 215° Southwest 431 496 34,000  Level FlightAware
12:07PM 26.0600 122.1990 214° Southwest 432 497 34,000  Level FlightAware
12:07PM 25.9870 122.1430 215° Southwest 433 498 34,000  Level FlightAware
12:08PM 25.9220 122.0940 214° Southwest 432 497 34,000  Level FlightAware
12:09PM 25.8550 122.0430 214° Southwest 434 499 34,000  Level FlightAware
12:09PM 25.7780 121.9840 215° Southwest 435 501 34,000  Level FlightAware
12:10PM 25.7130 121.9340 215° Southwest 435 501 34,000  Level FlightAware
12:11PM 25.6450 121.8820 215° Southwest 435 501 34,000  Level FlightAware
12:12PM 25.5730 121.8270 215° Southwest 437 503 34,000  Level FlightAware
12:12PM 25.5060 121.7740 216° Southwest 438 504 34,000  Level FlightAware
12:13PM 25.4370 121.7220 214° Southwest 436 502 34,000  Level FlightAware
12:14PM 25.3640 121.6660 215° Southwest 430 495 34,000  Level FlightAware
12:14PM 25.3000 121.6170 215° Southwest 427 491 34,000  Level FlightAware
12:15PM 25.2250 121.5600 215° Southwest 432 497 34,000  Level FlightAware
12:15PM 25.1950 121.5470 201° Southwest 446 513 34,000  Level FlightAware
12:16PM 25.1660 121.5430 187° South 472 543 34,000  Level FlightAware
12:16PM 25.0780 121.5760 161° South 518 596 34,000  Level FlightAware
12:17PM 24.9990 121.6290 149° Southeast 521 600 34,000  Level FlightAware
12:18PM 24.9310 121.6740 149° Southeast 519 597 34,000  Level FlightAware
12:18PM 24.8530 121.7240 150° Southeast 516 594 34,000  Level FlightAware
12:19PM 24.7760 121.7710 151° Southeast 514 592 34,000  Level FlightAware
12:20PM 24.6390 121.8550 151° Southeast 515 593 34,000  Level FlightAware
12:21PM 24.5450 121.9120 151° Southeast 509 586 34,000  Level FlightAware
12:21PM 24.4720 121.9550 152° Southeast 506 582 34,000  Level FlightAware
12:22PM 24.3870 122.0070 151° Southeast 506 582 34,000  Level FlightAware
12:23PM 24.3170 122.0500 151° Southeast 506 582 34,000  Level FlightAware
12:23PM 24.2470 122.0920 151° Southeast 506 582 34,000  Level FlightAware
12:24PM 24.1780 122.1340 151° Southeast 506 582 34,000  Level FlightAware
12:25PM 24.1080 122.1770 151° Southeast 506 582 34,000  Level FlightAware
12:25PM 23.9740 121.9050 242° Southwest 452 520 34,000  Level FlightAware
12:26PM 23.8910 121.8780 197° South 452 520 34,000  Level FlightAware
12:27PM 23.8080 121.8520 196° South 455 524 34,000  Level FlightAware
12:27PM 23.7250 121.8230 198° South 456 525 34,000  Level FlightAware
12:28PM 23.6340 121.7900 198° South 461 531 34,000  Level FlightAware
12:29PM 23.5510 121.7620 197° South 466 536 34,000  Level FlightAware
12:29PM 23.4710 121.7400 194° South 467 537 34,000  Level FlightAware
12:30PM 23.3820 121.7150 194° South 464 534 34,000  Level FlightAware
12:31PM 23.3080 121.6900 197° South 460 529 34,000  Level FlightAware
12:32PM 23.2140 121.6590 197° South 459 528 34,000  Level FlightAware
12:32PM 23.1140 121.6260 197° South 458 527 34,000  Level FlightAware
12:33PM 23.0000 121.5890 197° South 460 529 34,000  Level FlightAware
12:34PM 22.9310 121.5680 196° South 462 532 34,000 60 Level FlightAware
12:35PM 22.8320 121.5360 197° South 465 535 34,100 600 Climbing FlightAware
12:35PM 22.7530 121.5120 196° South 463 533 34,900 660 Climbing FlightAware
12:36PM 22.6730 121.4800 200° South 451 519 35,000 60 Climbing FlightAware
12:37PM 22.5910 121.4170 215° Southwest 438 504 35,000  Level FlightAware
12:37PM 22.5330 121.3660 219° Southwest 436 502 35,000  Level FlightAware
12:38PM 22.4650 121.3070 219° Southwest 437 503 35,000  Level FlightAware
12:39PM 22.3700 121.2240 219° Southwest 437 503 35,000  Level FlightAware
12:40PM 22.2860 121.1520 218° Southwest 437 503 35,000  Level FlightAware
12:41PM 22.2140 121.0890 219° Southwest 437 503 35,000  Level FlightAware
12:41PM 22.1490 121.0340 218° Southwest 440 506 35,000  Level FlightAware
12:42PM 22.0580 120.9560 218° Southwest 441 507 35,000  Level FlightAware
12:43PM 21.9860 120.8940 219° Southwest 442 509 35,000  Level FlightAware
12:44PM 21.9230 120.8380 220° Southwest 440 506 35,000  Level FlightAware
12:44PM 21.8680 120.7830 223° Southwest 439 505 35,000  Level FlightAware
12:45PM 21.8010 120.7120 225° Southwest 439 505 35,000  Level FlightAware
12:46PM 21.7480 120.6550 225° Southwest 439 505 35,000  Level FlightAware
12:47PM 21.6790 120.5840 224° Southwest 440 506 35,000  Level FlightAware
12:47PM 21.6180 120.5210 224° Southwest 440 506 35,000  Level FlightAware
12:48PM 21.5500 120.4490 225° Southwest 440 506 35,000  Level FlightAware
12:49PM 21.4990 120.3960 224° Southwest 440 506 35,000  Level FlightAware
12:49PM 21.4360 120.3320 223° Southwest 441 507 35,000  Level FlightAware
12:50PM 21.3690 120.2620 224° Southwest 442 509 35,000  Level FlightAware
12:51PM 21.3150 120.2050 225° Southwest 442 509 35,000  Level FlightAware
12:52PM 21.2220 120.1090 224° Southwest 443 510 35,000  Level FlightAware
12:52PM 21.1660 120.0510 224° Southwest 443 510 35,000  Level FlightAware
12:53PM 21.1050 119.9880 224° Southwest 444 511 35,000  Level FlightAware
12:54PM 21.0480 119.9300 224° Southwest 444 511 35,000  Level FlightAware
12:54PM 20.9790 119.8580 224° Southwest 444 511 35,000  Level FlightAware
12:55PM 20.9250 119.8000 225° Southwest 444 511 35,000  Level FlightAware
12:56PM 20.8660 119.7360 225° Southwest 444 511 35,000  Level FlightAware
12:57PM 20.7960 119.6610 225° Southwest 443 510 35,000  Level FlightAware
12:57PM 20.7440 119.6050 225° Southwest 443 510 35,000  Level FlightAware
12:58PM 20.6710 119.5270 225° Southwest 443 510 35,000  Level FlightAware
12:59PM 20.6220 119.4740 225° Southwest 443 510 35,000  Level FlightAware
12:59PM 20.5480 119.3950 225° Southwest 442 509 35,000  Level FlightAware
01:00PM 20.4970 119.3410 225° Southwest 443 510 35,000  Level FlightAware
01:01PM 20.4150 119.2520 225° Southwest 444 511 35,000  Level FlightAware
01:02PM 20.3500 119.1820 225° Southwest 445 512 35,000  Level FlightAware
01:02PM 20.2920 119.1210 225° Southwest 446 513 35,000  Level FlightAware
01:04PM 20.1870 119.0080 225° Southwest 445 512 35,000  Level FlightAware
01:04PM 20.1210 118.9380 225° Southwest 446 513 35,000  Level FlightAware
01:05PM 20.0660 118.8810 224° Southwest 445 512 35,000  Level FlightAware
01:06PM 20.0170 118.8290 225° Southwest 445 512 35,000  Level FlightAware
01:06PM 19.9550 118.7630 225° Southwest 445 512 35,000  Level FlightAware
01:07PM 19.9050 118.7100 225° Southwest 445 512 35,000  Level FlightAware
01:08PM 19.8560 118.6570 225° Southwest 445 512 35,000  Level FlightAware
01:08PM 19.8060 118.6050 224° Southwest 445 512 35,000  Level FlightAware
01:09PM 19.7570 118.5520 226° Southwest 445 512 35,000  Level FlightAware
01:10PM 19.6950 118.4870 225° Southwest 445 512 35,000  Level FlightAware
01:11PM 19.6450 118.4340 225° Southwest 445 512 35,000  Level FlightAware
01:11PM 19.5960 118.3810 226° Southwest 445 512 35,000  Level FlightAware
01:12PM 19.5460 118.3290 224° Southwest 445 512 35,000  Level FlightAware
01:13PM 19.4970 118.2760 226° Southwest 445 512 35,000  Level FlightAware
01:13PM 19.4350 118.2110 225° Southwest 445 512 35,000  Level FlightAware
01:14PM 19.3850 118.1580 225° Southwest 445 512 35,000  Level FlightAware
01:15PM 19.3360 118.1060 225° Southwest 445 512 35,000  Level FlightAware
01:17PM 19.1904 117.9801 219° Southwest  Level Estimated
01:18PM 19.1094 117.9103 219° Southwest  Level Estimated
01:19PM 19.0284 117.8406 219° Southwest  Level Estimated
01:20PM 18.9474 117.7709 219° Southwest  Level Estimated
01:21PM 18.8664 117.7012 219° Southwest  Level Estimated
01:22PM 18.7854 117.6317 219° Southwest  Level Estimated
01:23PM 18.7043 117.5622 219° Southwest  Level Estimated
01:24PM 18.6232 117.4928 219° Southwest  Level Estimated
01:25PM 18.5420 117.4234 219° Southwest  Level Estimated
01:26PM 18.4609 117.3541 219° Southwest  Level Estimated
01:27PM 18.3797 117.2849 219° Southwest  Level Estimated
01:28PM 18.2985 117.2157 219° Southwest  Level Estimated
01:29PM 18.2173 117.1467 219° Southwest  Level Estimated
01:30PM 18.1360 117.0776 219° Southwest  Level Estimated
01:31PM 18.0548 117.0087 219° Southwest  Level Estimated
01:32PM 17.9735 116.9398 219° Southwest  Level Estimated
01:33PM 17.8921 116.8709 219° Southwest  Level Estimated
01:34PM 17.8108 116.8021 219° Southwest  Level Estimated
01:35PM 17.7294 116.7334 219° Southwest  Level Estimated
01:36PM 17.6480 116.6648 219° Southwest  Level Estimated
01:37PM 17.5666 116.5962 219° Southwest  Level Estimated
01:38PM 17.4851 116.5276 219° Southwest  Level Estimated
01:39PM 17.4037 116.4592 219° Southwest  Level Estimated
01:40PM 17.3222 116.3908 219° Southwest  Level Estimated
01:41PM 17.2407 116.3224 219° Southwest  Level Estimated
01:42PM 17.1591 116.2542 219° Southwest  Level Estimated
01:43PM 17.0776 116.1859 219° Southwest  Level Estimated
01:44PM 16.9960 116.1178 219° Southwest  Level Estimated
01:45PM 16.9144 116.0497 219° Southwest  Level Estimated
01:46PM 16.8327 115.9816 219° Southwest  Level Estimated
01:47PM 16.7511 115.9136 219° Southwest  Level Estimated
01:48PM 16.6694 115.8457 219° Southwest  Level Estimated
01:49PM 16.5877 115.7778 219° Southwest  Level Estimated
01:50PM 16.5060 115.7100 219° Southwest  Level Estimated
01:51PM 16.4243 115.6423 218° Southwest  Level Estimated
01:52PM 16.3425 115.5746 218° Southwest  Level Estimated
01:53PM 16.2607 115.5069 218° Southwest  Level Estimated
01:54PM 16.1789 115.4393 218° Southwest  Level Estimated
01:55PM 16.0971 115.3718 218° Southwest  Level Estimated
01:56PM 16.0152 115.3043 218° Southwest  Level Estimated
01:57PM 15.9334 115.2369 218° Southwest  Level Estimated
01:58PM 15.8515 115.1696 218° Southwest  Level Estimated
01:59PM 15.7696 115.1022 218° Southwest  Level Estimated
02:00PM 15.6876 115.0350 218° Southwest  Level Estimated
02:01PM 15.6057 114.9678 218° Southwest  Level Estimated
02:02PM 15.5237 114.9007 218° Southwest  Level Estimated
02:03PM 15.4417 114.8336 218° Southwest  Level Estimated
02:04PM 15.3597 114.7665 218° Southwest  Level Estimated
02:05PM 15.2777 114.6995 218° Southwest  Level Estimated
02:06PM 15.1956 114.6326 218° Southwest  Level Estimated
02:07PM 15.1136 114.5657 218° Southwest  Level Estimated
02:08PM 15.0315 114.4989 218° Southwest  Level Estimated
02:09PM 14.9494 114.4321 218° Southwest  Level Estimated
02:10PM 14.8672 114.3654 218° Southwest  Level Estimated
02:11PM 14.7851 114.2987 218° Southwest  Level Estimated
02:12PM 14.7029 114.2321 218° Southwest  Level Estimated
02:13PM 14.6207 114.1655 218° Southwest  Level Estimated
02:14PM 14.5385 114.0990 218° Southwest  Level Estimated
02:15PM 14.4563 114.0325 218° Southwest  Level Estimated
02:16PM 14.3741 113.9660 218° Southwest  Level Estimated
02:17PM 14.2918 113.8997 218° Southwest  Level Estimated
02:18PM 14.2095 113.8333 218° Southwest  Level Estimated
02:19PM 14.1272 113.7671 218° Southwest  Level Estimated
02:20PM 14.0449 113.7008 218° Southwest  Level Estimated
02:21PM 13.9626 113.6346 218° Southwest  Level Estimated
02:22PM 13.8802 113.5685 218° Southwest  Level Estimated
02:23PM 13.7978 113.5024 218° Southwest  Level Estimated
02:24PM 13.7154 113.4363 218° Southwest  Level Estimated
02:25PM 13.6330 113.3703 218° Southwest  Level Estimated
02:26PM 13.5506 113.3044 218° Southwest  Level Estimated
02:27PM 13.4682 113.2385 218° Southwest  Level Estimated
02:28PM 13.3857 113.1726 218° Southwest  Level Estimated
02:29PM 13.3032 113.1068 218° Southwest  Level Estimated
02:30PM 13.2207 113.0410 218° Southwest  Level Estimated
02:31PM 13.1382 112.9753 218° Southwest  Level Estimated
02:32PM 13.0557 112.9096 218° Southwest  Level Estimated
02:33PM 12.9732 112.8440 218° Southwest  Level Estimated
02:34PM 12.8906 112.7784 218° Southwest  Level Estimated
02:35PM 12.8080 112.7128 218° Southwest  Level Estimated
02:36PM 12.7254 112.6473 218° Southwest  Level Estimated
02:37PM 12.6428 112.5818 218° Southwest  Level Estimated
02:38PM 12.5602 112.5164 218° Southwest  Level Estimated
02:39PM 12.4776 112.4510 218° Southwest  Level Estimated
02:40PM 12.3949 112.3857 218° Southwest  Level Estimated
02:41PM 12.3123 112.3204 218° Southwest  Level Estimated
02:42PM 12.2296 112.2551 218° Southwest  Level Estimated
02:43PM 12.1469 112.1899 218° Southwest  Level Estimated
02:44PM 12.0641 112.1247 218° Southwest  Level Estimated
02:45PM 11.9814 112.0596 218° Southwest  Level Estimated
02:46PM 11.8987 111.9945 218° Southwest  Level Estimated
02:47PM 11.8159 111.9294 218° Southwest  Level Estimated
02:48PM 11.7331 111.8644 218° Southwest  Level Estimated
02:49PM 11.6503 111.7994 218° Southwest  Level Estimated
02:50PM 11.5675 111.7345 218° Southwest  Level Estimated
02:51PM 11.4847 111.6696 218° Southwest  Level Estimated
02:52PM 11.4019 111.6047 218° Southwest  Level Estimated
02:53PM 11.3190 111.5399 218° Southwest  Level Estimated
02:54PM 11.2362 111.4751 217° Southwest  Level Estimated
02:55PM 11.1533 111.4103 217° Southwest  Level Estimated
02:56PM 11.0704 111.3456 217° Southwest  Level Estimated
02:57PM 10.9875 111.2809 217° Southwest  Level Estimated
02:58PM 10.9046 111.2163 217° Southwest  Level Estimated
02:59PM 10.8216 111.1517 217° Southwest  Level Estimated
03:00PM 10.7387 111.0871 217° Southwest  Level Estimated
03:01PM 10.6558 111.0226 217° Southwest  Level Estimated
03:02PM 10.5728 110.9581 217° Southwest  Level Estimated
03:03PM 10.4898 110.8936 217° Southwest  Level Estimated
03:04PM 10.4068 110.8292 217° Southwest  Level Estimated
03:05PM 10.3238 110.7648 217° Southwest  Level Estimated
03:06PM 10.2408 110.7004 217° Southwest  Level Estimated
03:07PM 10.1577 110.6361 217° Southwest  Level Estimated
03:08PM 10.0747 110.5718 217° Southwest  Level Estimated
03:09PM 9.9916 110.5075 217° Southwest  Level Estimated
03:10PM 9.9086 110.4433 217° Southwest  Level Estimated
03:11PM 9.8255 110.3791 217° Southwest  Level Estimated
03:12PM 9.7424 110.3149 217° Southwest  Level Estimated
03:13PM 9.6593 110.2508 217° Southwest  Level Estimated
03:14PM 9.5761 110.1867 217° Southwest  Level Estimated
03:15PM 9.4930 110.1226 217° Southwest  Level Estimated
03:16PM 9.4099 110.0586 217° Southwest  Level Estimated
03:17PM 9.3267 109.9946 217° Southwest  Level Estimated
03:18PM 9.2435 109.9306 217° Southwest  Level Estimated
03:19PM 9.1604 109.8667 217° Southwest  Level Estimated
03:20PM 9.0772 109.8027 217° Southwest  Level Estimated
03:21PM 8.9940 109.7388 217° Southwest  Level Estimated
03:22PM 8.9108 109.6750 217° Southwest  Level Estimated
03:23PM 8.8275 109.6112 217° Southwest  Level Estimated
03:24PM 8.7443 109.5473 217° Southwest  Level Estimated
03:25PM 8.6611 109.4836 217° Southwest  Level Estimated
03:26PM 8.5778 109.4198 217° Southwest  Level Estimated
03:27PM 8.4945 109.3561 217° Southwest  Level Estimated
03:28PM 8.4113 109.2924 217° Southwest  Level Estimated
03:29PM 8.3280 109.2288 217° Southwest  Level Estimated
03:30PM 8.2447 109.1651 217° Southwest  Level Estimated
03:31PM 8.1614 109.1015 217° Southwest  Level Estimated
03:32PM 8.0780 109.0379 217° Southwest  Level Estimated
03:33PM 7.9947 108.9744 217° Southwest  Level Estimated
03:34PM 7.9114 108.9109 217° Southwest  Level Estimated
03:35PM 7.8280 108.8474 217° Southwest  Level Estimated
03:36PM 7.7447 108.7839 217° Southwest  Level Estimated
03:37PM 7.6613 108.7204 217° Southwest  Level Estimated
03:38PM 7.5780 108.6570 217° Southwest  Level Estimated
03:39PM 7.4946 108.5936 217° Southwest  Level Estimated
03:40PM 7.4112 108.5302 217° Southwest  Level Estimated
03:41PM 7.3278 108.4669 217° Southwest  Level Estimated
03:41PM 4.1750 106.0740 217° Southwest 464 534 35,000  Level FlightAware
03:42PM 7.2444 108.4035 217° Southwest  Level Estimated
03:42PM 4.1340 106.0230 231° Southwest 464 534 35,000  Level FlightAware
03:43PM 4.0600 105.9320 231° Southwest 464 534 35,000  Level FlightAware
03:43PM 4.0070 105.8670 231° Southwest 464 534 35,000  Level FlightAware
03:44PM 3.9520 105.8000 231° Southwest 465 535 35,000  Level FlightAware
03:45PM 3.8880 105.7210 231° Southwest 464 534 35,000  Level FlightAware
03:45PM 3.8350 105.6560 231° Southwest 465 535 35,000  Level FlightAware
03:46PM 3.7740 105.5800 231° Southwest 465 535 35,000  Level FlightAware
03:47PM 3.7190 105.5130 231° Southwest 465 535 35,000  Level FlightAware
03:48PM 3.6570 105.4360 231° Southwest 465 535 35,000  Level FlightAware
03:48PM 3.6050 105.3720 231° Southwest 465 535 35,000  Level FlightAware
03:49PM 3.5490 105.3040 230° Southwest 465 535 35,000  Level FlightAware
03:50PM 3.4880 105.2280 231° Southwest 461 531 35,000  Level FlightAware
03:50PM 3.4350 105.1620 231° Southwest 458 527 35,000  Level FlightAware
03:51PM 3.3700 105.0900 228° Southwest 455 524 35,000  Level FlightAware
03:52PM 3.3140 105.0280 228° Southwest 453 521 35,000  Level FlightAware
03:52PM 3.2580 104.9630 229° Southwest 453 521 35,000  Level FlightAware
03:53PM 3.1990 104.8950 229° Southwest 454 522 35,000  Level FlightAware
03:54PM 3.1410 104.8300 228° Southwest 454 522 35,000 -720 Level FlightAware
03:54PM 3.0860 104.7660 229° Southwest 457 526 34,100 -2,100 Descending FlightAware
03:55PM 3.0220 104.6940 228° Southwest 464 534 32,100 -2,160 Descending FlightAware
03:56PM 2.9660 104.6290 229° Southwest 448 516 31,100 -1,740 Descending FlightAware
03:57PM 2.9060 104.5610 229° Southwest 438 504 29,700 -1,920 Descending FlightAware
03:57PM 2.8540 104.5020 229° Southwest 430 495 28,400 -1,980 Descending FlightAware
03:58PM 2.8000 104.4400 229° Southwest 420 483 27,100 -2,100 Descending FlightAware
03:59PM 2.7440 104.3770 228° Southwest 401 461 25,500 -2,280 Descending FlightAware
03:59PM 2.6960 104.3210 229° Southwest 388 447 23,900 -2,340 Descending FlightAware
04:00PM 2.6610 104.2810 229° Southwest 382 440 22,800 -2,280 Descending FlightAware
04:01PM 2.6140 104.2290 228° Southwest 370 426 21,300 -2,280 Descending FlightAware
04:01PM 2.5640 104.1710 229° Southwest 360 414 19,600 -2,280 Descending FlightAware
04:02PM 2.5180 104.1220 227° Southwest 351 404 18,100 -1,980 Descending FlightAware
04:02PM 2.4990 104.1120 208° Southwest 342 394 17,800 -1,620 Descending FlightAware
04:02PM 2.4730 104.1050 195° South 334 384 17,300 -2,100 Descending FlightAware
04:03PM 2.4130 104.1050 180° South 322 371 15,900 -1,860 Descending FlightAware
04:04PM 2.3480 104.1050 180° South 313 360 14,700 -1,380 Descending FlightAware
04:05PM 2.2910 104.1060 179° South 298 343 14,000 -1,200 Descending FlightAware
04:05PM 2.2360 104.1050 181° South 292 336 13,100 -1,320 Descending FlightAware
04:06PM 2.1760 104.1050 180° South 277 319 12,200 -1,500 Descending FlightAware
04:07PM 2.1240 104.1050 180° South 270 311 11,000 -1,860 Descending FlightAware
04:08PM 2.0600 104.1050 180° South 271 312 9,300 -1,980 Descending FlightAware
04:08PM 2.0370 104.1050 180° South 273 314 8,700 -1,740 Descending FlightAware
04:08PM 1.9980 104.1050 180° South 272 313 8,000 -1,320 Descending FlightAware
04:09PM 1.9680 104.1030 184° South 270 311 7,500 -900 Descending FlightAware
04:09PM 1.9310 104.0980 188° South 271 312 7,200 -300 Descending FlightAware
04:10PM 1.8930 104.0930 187° South 271 312 7,200  Level FlightAware
04:10PM 1.8610 104.0880 189° South 271 312 7,200  Level FlightAware
04:11PM 1.8230 104.0830 187° South 272 313 7,200  Level FlightAware
04:11PM 1.8060 104.0810 187° South 272 313 7,200  Level FlightAware
04:11PM 1.7720 104.0770 187° South 272 313 7,200 -480 Level FlightAware
04:12PM 1.7550 104.0740 190° South 269 310 6,900 -1,380 Descending FlightAware
04:12PM 1.7230 104.0700 187° South 267 307 6,300 -1,440 Descending FlightAware
04:12PM 1.6850 104.0650 187° South 267 307 5,600 -1,320 Descending FlightAware
04:13PM 1.6490 104.0600 188° South 265 305 5,000 -1,140 Descending FlightAware
04:13PM 1.6200 104.0570 186° South 261 300 4,600 -900 Descending FlightAware
04:14PM 1.5830 104.0520 188° South 261 300 4,200 -540 Descending FlightAware
04:14PM 1.5640 104.0490 189° South 260 299 4,200  Level FlightAware
04:15PM 1.5350 104.0450 188° South 260 299 4,200  Level FlightAware
04:15PM 1.4990 104.0410 186° South 260 299 4,200  Level FlightAware
04:16PM 1.4620 104.0360 188° South 261 300 4,200  Level FlightAware
04:16PM 1.4320 104.0320 188° South 260 299 4,200  Level FlightAware
04:16PM 1.3960 104.0270 188° South 261 300 4,200  Level FlightAware
04:17PM 1.3680 104.0230 188° South 261 300 4,200 -120 Level FlightAware
04:17PM 1.3300 104.0170 189° South 259 298 4,100 -300 Descending FlightAware
04:18PM 1.3120 104.0170 180° South 251 289 4,000 -600 Descending FlightAware
04:18PM 1.2850 104.0180 178° South 237 273 3,700 -600 Descending FlightAware
04:18PM 1.2670 104.0160 186° South 223 257 3,600 -840 Descending FlightAware
04:19PM 1.2390 104.0070 198° South 213 245 3,100 -1,020 Descending FlightAware
04:19PM 1.2160 103.9990 199° South 200 230 2,700 -1,080 Descending FlightAware
04:19PM 1.2050 103.9900 219° Southwest 197 227 2,400 -1,020 Descending FlightAware
04:20PM 1.2020 103.9780 256° West 190 219 2,200 -300 Descending FlightAware
04:20PM 1.2020 103.9530 270° West 177 204 2,200  Level FlightAware
04:20PM 1.2030 103.9450 277° West 177 204 2,200  Level FlightAware
04:21PM 1.2110 103.9360 312° West 178 205 2,200  Level FlightAware
04:21PM 1.2220 103.9320 340° North 179 206 2,200  Level FlightAware
04:21PM 1.2360 103.9310 356° North 183 211 2,200 -180 Level FlightAware
04:22PM 1.2550 103.9380 20° North 174 200 2,100 -600 Descending FlightAware
04:22PM 1.2760 103.9460 21° North 159 183 1,700 -840 Descending FlightAware
04:22PM 1.2870 103.9510 24° Northeast 159 183 1,500 -780 Descending FlightAware
04:23PM 1.3040 103.9580 22° Northeast 161 185 1,200 -900 Descending FlightAware
04:23PM 1.3150 103.9630 24° Northeast 159 183 900 -960 Descending FlightAware
04:23PM 1.3350 103.9720 24° Northeast 157 181 500 -720 Descending FlightAware
04:24PM 1.3480 103.9770 21° North 154 177 300 -600 Descending FlightAware